Flight Track Log - Related Links

Times and Time Zones

All times are in EDT time to prevent confusion due to time zone crossing. See the FLG3957 flight status page for this flight to view local times or setup timezone preferences in your user account.

Time Position Orientation Groundspeed Altitude Reporting Facility
EDT Latitude Longitude Course Direction KTS MPH feet Rate Location/Type
Sun 07:46:57 AM 35.9142 -83.8925 28° Northeast 217 250 4,500  Level Atlanta Center
Sun 07:47:57 AM 35.9831 -83.8464 25° Northeast 244 281 6,500 2,300 Climbing Atlanta Center
Sun 07:48:57 AM 36.0539 -83.8050 27° Northeast 267 307 9,100 2,000 Climbing Atlanta Center
Sun 07:49:57 AM 36.1308 -83.7558 27° Northeast 287 330 10,500 1,100 Climbing Atlanta Center
Sun 07:50:57 AM 36.2183 -83.7017 28° Northeast 315 362 11,300 1,459 Climbing Atlanta Center
Sun 07:52:58 AM 36.3992 -83.5828 27° Northeast 358 412 14,900 1,533 Climbing Indianapolis Center
Sun 07:53:57 AM 36.4931 -83.5233 26° Northeast 363 418 15,900 1,008 Climbing Indianapolis Center
Sun 07:54:57 AM 36.5889 -83.4639 28° Northeast 368 423 16,900 950 Climbing Indianapolis Center
Sun 07:55:57 AM 36.6869 -83.3989 26° Northeast 386 444 17,800 950 Climbing Indianapolis Center
Sun 07:56:57 AM 36.7869 -83.3367 27° Northeast 392 451 18,800 950 Climbing Indianapolis Center
Sun 07:57:57 AM 36.8972 -83.2661 27° Northeast 392 451 19,700 850 Climbing Indianapolis Center
Sun 07:58:57 AM 36.9994 -83.2008 28° Northeast 398 458 20,500 800 Climbing Indianapolis Center
Sun 07:59:57 AM 37.1033 -83.1325 27° Northeast 409 471 21,300 800 Climbing Indianapolis Center
Sun 08:00:57 AM 37.2075 -83.0667 28° Northeast 409 471 22,100 800 Climbing Indianapolis Center
Sun 08:01:57 AM 37.3094 -82.9983 27° Northeast 402 463 22,900 650 Climbing Indianapolis Center
Sun 08:02:57 AM 37.4156 -82.9294 28° Northeast 408 470 23,400 500 Climbing Indianapolis Center
Sun 08:03:57 AM 37.5172 -82.8606 28° Northeast 408 470 23,900 500 Climbing Indianapolis Center
Sun 08:04:57 AM 37.6253 -82.7886 27° Northeast 413 475 24,400 550 Climbing Indianapolis Center
Sun 08:05:57 AM 37.7333 -82.7192 29° Northeast 427 491 25,000 550 Climbing Indianapolis Center
Sun 08:06:57 AM 37.8369 -82.6472 27° Northeast 427 491 25,500 500 Climbing Indianapolis Center
Sun 08:07:57 AM 37.9469 -82.5747 28° Northeast 427 491 26,000 500 Climbing Indianapolis Center
Sun 08:08:57 AM 38.0569 -82.5019 29° Northeast 427 491 26,500 450 Climbing Indianapolis Center
Sun 08:09:57 AM 38.1503 -82.4372 27° Northeast 427 491 26,900 450 Climbing Indianapolis Center
Sun 08:10:57 AM 38.2600 -82.3667 28° Northeast 427 491 27,400 500 Climbing Indianapolis Center
Sun 08:11:57 AM 38.3678 -82.2936 28° Northeast 427 491 27,900 500 Climbing Indianapolis Center
Sun 08:12:57 AM 38.4753 -82.2200 28° Northeast 427 491 28,400 550 Climbing Indianapolis Center
Sun 08:13:57 AM 38.5808 -82.1492 28° Northeast 427 491 29,000 550 Climbing Indianapolis Center
Sun 08:14:57 AM 38.6906 -82.0750 15° North 427 491 29,500 496 Climbing Indianapolis Center
Sun 08:15:58 AM 38.8131 -82.0325 351° North 427 491 30,000 250 Climbing Indianapolis Center
Sun 08:16:57 AM 38.9303 -82.0567 353° North 410 472 30,000  Level Indianapolis Center
Sun 08:17:57 AM 39.0514 -82.0756 353° North 416 479 30,000  Level Indianapolis Center
Sun 08:18:57 AM 39.1725 -82.0944 353° North 430 495 30,000  Level Indianapolis Center
Sun 08:19:57 AM 39.2936 -82.1136 353° North 430 495 30,000  Level Indianapolis Center
Sun 08:20:57 AM 39.4192 -82.1325 353° North 435 501 30,000  Level Indianapolis Center
Sun 08:21:58 AM 39.5278 -82.1492 353° North 435 501 30,000  Level Indianapolis Center
Sun 08:22:57 AM 39.6592 -82.1708 353° North 440 506 30,000  Level Indianapolis Center
Sun 08:23:57 AM 39.7867 -82.1900 353° North 447 514 30,000  Level Indianapolis Center
Sun 08:24:57 AM 39.9100 -82.2092 353° North 452 520 30,000  Level Indianapolis Center
Sun 08:25:57 AM 40.0353 -82.2286 352° North 446 513 30,000  Level Indianapolis Center
Sun 08:27:50 AM 40.2589 -82.2672 353° North 475 547 30,000  Level Cleveland Center
Sun 08:28:50 AM 40.3961 -82.2897 351° North 468 539 30,000  Level Cleveland Center
Sun 08:29:50 AM 40.5231 -82.3147 347° North 462 532 30,000  Level Cleveland Center
Sun 08:30:50 AM 40.6456 -82.3508 348° North 457 526 30,000  Level Cleveland Center
Sun 08:31:50 AM 40.7719 -82.3872 347° North 457 526 30,000 -400 Level Cleveland Center
Sun 08:32:50 AM 40.8944 -82.4236 347° North 457 526 29,200 -1,300 Descending Cleveland Center
Sun 08:33:50 AM 41.0064 -82.4569 347° North 451 519 27,400 -1,800 Descending Cleveland Center
Sun 08:34:50 AM 41.1247 -82.4933 347° North 445 512 25,600 -2,050 Descending Cleveland Center
Sun 08:35:50 AM 41.2431 -82.5300 323° Northwest 435 501 23,300 -2,250 Descending Cleveland Center
Sun 08:36:50 AM 41.3311 -82.6183 318° Northwest 398 458 21,100 -2,250 Descending Cleveland Center
Sun 08:37:50 AM 41.4106 -82.7122 319° Northwest 392 451 18,800 -2,050 Descending Cleveland Center
Sun 08:38:50 AM 41.4942 -82.8092 321° Northwest 376 433 17,000 -1,900 Descending Cleveland Center
Sun 08:39:50 AM 41.5678 -82.8894 318° Northwest 355 409 15,000 -2,000 Descending Cleveland Center
Sun 08:40:41 AM 41.6328 -82.9669 318° Northwest 343 395 13,300 -1,500 Descending Cleveland Center
Sun 08:41:50 AM 41.7019 -83.0500 328° Northwest 338 389 12,000 -639 Descending Cleveland Center
Sun 08:42:43 AM 41.7797 -83.1144 330° Northwest 346 398 12,000  Level Cleveland Center
Sun 08:43:56 AM 41.8842 -83.1967 333° Northwest 347 399 12,000 -47 Level Cleveland Center
Sun 08:44:50 AM 41.9542 -83.2442 329° Northwest 335 386 11,900 -492 Descending Cleveland Center
Sun 08:45:58 AM 42.0256 -83.3031 360° North 246 283 11,000 -419 Descending Cleveland Center
Sun 08:46:59 AM 42.0903 -83.3031 29° Northeast 258 297 11,000  Level Cleveland Center
Sun 08:47:50 AM 42.1369 -83.2686 28° Northeast 228 262 11,000 -432 Level Cleveland Center
Sun 08:48:50 AM 42.2028 -83.2208 26° Northeast 244 281 10,200 -1,513 Descending Cleveland Center
Sun 08:49:49 AM 42.2706 -83.1758 30° Northeast 255 293 8,000 -2,100 Descending Cleveland Center
Sun 08:50:50 AM 42.3342 -83.1253 318° Northwest 257 296 6,000 -1,475 Descending Cleveland Center
Sun 08:51:51 AM 42.3728 -83.1717 245° Southwest 202 232 5,000 -750 Descending Cleveland Center
Sun 08:52:58 AM 42.3525 -83.2300 215° Southwest 174 200 4,400 -984 Descending Cleveland Center
Sun 08:53:59 AM 42.3122 -83.2675 210° Southwest 172 198 2,900 -1,172 Descending Cleveland Center
Sun 08:55:06 AM 42.2717 -83.2994 206° Southwest 144 166 1,900 -836 Descending Cleveland Center
Sun 08:56:01 AM 42.2400 -83.3206 206° Southwest 140 161 1,200 -764 Descending Cleveland Center

Login

Don't have an account? Register now (free) for customized features, flight alerts, and more!